Weather at Shannon Airport

Public forecast

Using degrees Celsius for public forecast. Weather courtesy of forecast.io.

Current aviation weather report (METAR) for Shannon Airport

Retrieved 2021/11/30 15:30 UTC (8 minutes ago):

EINN 301530Z 20010KT 9000 -DZ FEW009 BKN012 11/10 Q1005 TEMPO 4000

Aviation forecast (TAF) for Shannon Airport

Retrieved 2021/11/30 12:11 UTC (3 hours ago):

TAF EINN 301100Z 3012/0112 23012KT 7000 FEW003 BKN005 TEMPO 3012/3016 24015G25KT TEMPO 3012/3014 4000 -DZ BR BKN003 TEMPO 3014/3019 2000 RA PROB30 TEMPO 3014/3017 1400 +RA BKN003 BECMG 3016/3018 29018KT BKN020 TEMPO 3016/0112 31020G32KT PROB40 TEMPO 3018/3023 4000 SHRA BKN014 SCT020CB